sensor_id;sensor_type;location;lat;lon;timestamp;temperature;humidity
31677;DHT22;18385;51.572;6.578;2022-11-04T00:01:33;13.80;68.40
31677;DHT22;18385;51.572;6.578;2022-11-04T00:03:59;13.80;68.40
31677;DHT22;18385;51.572;6.578;2022-11-04T00:06:25;13.80;68.50
31677;DHT22;18385;51.572;6.578;2022-11-04T00:08:52;13.80;68.50
31677;DHT22;18385;51.572;6.578;2022-11-04T00:11:18;13.70;69.30
31677;DHT22;18385;51.572;6.578;2022-11-04T00:14:03;13.70;68.60
31677;DHT22;18385;51.572;6.578;2022-11-04T00:16:28;13.70;68.60
31677;DHT22;18385;51.572;6.578;2022-11-04T00:19:12;13.70;68.60
31677;DHT22;18385;51.572;6.578;2022-11-04T00:21:38;13.70;68.60
31677;DHT22;18385;51.572;6.578;2022-11-04T00:24:22;13.70;68.80
31677;DHT22;18385;51.572;6.578;2022-11-04T00:27:14;13.70;68.80
31677;DHT22;18385;51.572;6.578;2022-11-04T00:29:58;13.80;68.80
31677;DHT22;18385;51.572;6.578;2022-11-04T00:32:24;13.80;68.70
31677;DHT22;18385;51.572;6.578;2022-11-04T00:35:09;13.90;68.70
31677;DHT22;18385;51.572;6.578;2022-11-04T00:37:39;13.90;68.60
31677;DHT22;18385;51.572;6.578;2022-11-04T00:40:06;14.00;68.60
31677;DHT22;18385;51.572;6.578;2022-11-04T00:42:32;14.00;68.50
31677;DHT22;18385;51.572;6.578;2022-11-04T00:44:58;14.00;68.40
31677;DHT22;18385;51.572;6.578;2022-11-04T00:47:24;14.00;68.40
31677;DHT22;18385;51.572;6.578;2022-11-04T00:49:50;14.00;68.40
31677;DHT22;18385;51.572;6.578;2022-11-04T00:52:15;14.00;68.50
31677;DHT22;18385;51.572;6.578;2022-11-04T00:54:41;13.90;68.40
31677;DHT22;18385;51.572;6.578;2022-11-04T00:57:11;14.00;68.50
31677;DHT22;18385;51.572;6.578;2022-11-04T00:59:37;14.00;68.50
31677;DHT22;18385;51.572;6.578;2022-11-04T01:02:08;14.00;68.40
31677;DHT22;18385;51.572;6.578;2022-11-04T01:04:34;14.00;68.40
31677;DHT22;18385;51.572;6.578;2022-11-04T01:07:00;14.00;68.50
31677;DHT22;18385;51.572;6.578;2022-11-04T01:09:26;14.00;68.60
31677;DHT22;18385;51.572;6.578;2022-11-04T01:11:52;14.00;68.50
31677;DHT22;18385;51.572;6.578;2022-11-04T01:14:18;14.10;68.40
31677;DHT22;18385;51.572;6.578;2022-11-04T01:16:43;14.10;68.30
31677;DHT22;18385;51.572;6.578;2022-11-04T01:19:10;14.10;68.30
31677;DHT22;18385;51.572;6.578;2022-11-04T01:21:36;14.00;68.40
31677;DHT22;18385;51.572;6.578;2022-11-04T01:24:02;14.00;68.50
31677;DHT22;18385;51.572;6.578;2022-11-04T01:26:28;14.00;68.50
31677;DHT22;18385;51.572;6.578;2022-11-04T01:28:55;14.00;68.50
31677;DHT22;18385;51.572;6.578;2022-11-04T01:31:26;14.00;68.40
31677;DHT22;18385;51.572;6.578;2022-11-04T01:33:53;14.00;68.60
31677;DHT22;18385;51.572;6.578;2022-11-04T01:36:20;14.00;68.60
31677;DHT22;18385;51.572;6.578;2022-11-04T01:38:46;14.00;68.50
31677;DHT22;18385;51.572;6.578;2022-11-04T01:41:18;14.00;68.40
31677;DHT22;18385;51.572;6.578;2022-11-04T01:43:52;13.90;68.50
31677;DHT22;18385;51.572;6.578;2022-11-04T01:49:29;13.70;68.50
31677;DHT22;18385;51.572;6.578;2022-11-04T01:52:02;13.60;68.70
31677;DHT22;18385;51.572;6.578;2022-11-04T01:54:29;13.50;68.90
31677;DHT22;18385;51.572;6.578;2022-11-04T01:56:55;13.50;68.90
31677;DHT22;18385;51.572;6.578;2022-11-04T01:59:31;13.50;69.00
31677;DHT22;18385;51.572;6.578;2022-11-04T02:01:57;13.40;69.10
31677;DHT22;18385;51.572;6.578;2022-11-04T02:04:23;13.50;69.40
31677;DHT22;18385;51.572;6.578;2022-11-04T02:06:57;13.60;69.40
31677;DHT22;18385;51.572;6.578;2022-11-04T02:09:26;13.70;69.30
31677;DHT22;18385;51.572;6.578;2022-11-04T02:11:52;13.80;69.00
31677;DHT22;18385;51.572;6.578;2022-11-04T02:14:37;13.80;68.80
31677;DHT22;18385;51.572;6.578;2022-11-04T02:23:50;13.50;68.80
31677;DHT22;18385;51.572;6.578;2022-11-04T02:32:36;13.30;69.40
31677;DHT22;18385;51.572;6.578;2022-11-04T02:42:52;13.30;69.70
31677;DHT22;18385;51.572;6.578;2022-11-04T02:45:46;13.30;69.50
31677;DHT22;18385;51.572;6.578;2022-11-04T02:48:35;13.30;69.40
31677;DHT22;18385;51.572;6.578;2022-11-04T02:51:12;13.20;69.30
31677;DHT22;18385;51.572;6.578;2022-11-04T02:56:21;13.00;69.50
31677;DHT22;18385;51.572;6.578;2022-11-04T02:58:54;12.90;69.50
31677;DHT22;18385;51.572;6.578;2022-11-04T03:01:26;12.90;69.70
31677;DHT22;18385;51.572;6.578;2022-11-04T03:03:59;12.80;69.80
31677;DHT22;18385;51.572;6.578;2022-11-04T03:06:27;12.80;69.80
31677;DHT22;18385;51.572;6.578;2022-11-04T03:08:54;12.80;69.90
31677;DHT22;18385;51.572;6.578;2022-11-04T03:11:23;12.70;70.60
31677;DHT22;18385;51.572;6.578;2022-11-04T03:14:03;12.70;69.90
31677;DHT22;18385;51.572;6.578;2022-11-04T03:16:43;12.70;70.00
31677;DHT22;18385;51.572;6.578;2022-11-04T03:21:53;12.60;70.00
31677;DHT22;18385;51.572;6.578;2022-11-04T03:24:19;12.50;70.00
31677;DHT22;18385;51.572;6.578;2022-11-04T03:26:51;12.50;70.10
31677;DHT22;18385;51.572;6.578;2022-11-04T03:29:26;12.50;70.10
31677;DHT22;18385;51.572;6.578;2022-11-04T03:32:10;12.40;70.10
31677;DHT22;18385;51.572;6.578;2022-11-04T03:34:38;12.40;70.10
31677;DHT22;18385;51.572;6.578;2022-11-04T03:37:04;12.40;70.20
31677;DHT22;18385;51.572;6.578;2022-11-04T03:39:30;12.40;70.30
31677;DHT22;18385;51.572;6.578;2022-11-04T03:41:58;12.30;70.20
31677;DHT22;18385;51.572;6.578;2022-11-04T03:44:25;12.30;70.30
31677;DHT22;18385;51.572;6.578;2022-11-04T03:46:54;12.20;70.30
31677;DHT22;18385;51.572;6.578;2022-11-04T03:49:21;12.20;70.50
31677;DHT22;18385;51.572;6.578;2022-11-04T03:51:48;12.20;70.40
31677;DHT22;18385;51.572;6.578;2022-11-04T03:54:14;12.20;70.50
31677;DHT22;18385;51.572;6.578;2022-11-04T04:05:01;12.10;70.50
31677;DHT22;18385;51.572;6.578;2022-11-04T04:12:35;12.10;70.60
31677;DHT22;18385;51.572;6.578;2022-11-04T04:15:05;12.10;70.50
31677;DHT22;18385;51.572;6.578;2022-11-04T04:17:38;12.00;70.40
31677;DHT22;18385;51.572;6.578;2022-11-04T04:20:11;12.00;70.60
31677;DHT22;18385;51.572;6.578;2022-11-04T04:22:42;12.00;70.60
31677;DHT22;18385;51.572;6.578;2022-11-04T04:25:10;12.00;70.60
31677;DHT22;18385;51.572;6.578;2022-11-04T04:27:56;12.00;70.50
31677;DHT22;18385;51.572;6.578;2022-11-04T04:30:23;12.00;70.50
31677;DHT22;18385;51.572;6.578;2022-11-04T04:33:02;12.00;70.60
31677;DHT22;18385;51.572;6.578;2022-11-04T04:35:35;11.90;70.70
31677;DHT22;18385;51.572;6.578;2022-11-04T04:38:16;11.90;70.60
31677;DHT22;18385;51.572;6.578;2022-11-04T04:41:15;11.90;70.70
31677;DHT22;18385;51.572;6.578;2022-11-04T04:44:01;11.80;71.60
31677;DHT22;18385;51.572;6.578;2022-11-04T04:47:07;11.80;70.70
31677;DHT22;18385;51.572;6.578;2022-11-04T04:49:33;11.80;70.80
31677;DHT22;18385;51.572;6.578;2022-11-04T04:52:03;11.70;70.80
31677;DHT22;18385;51.572;6.578;2022-11-04T04:54:31;11.70;70.80
31677;DHT22;18385;51.572;6.578;2022-11-04T04:56:56;11.70;70.90
31677;DHT22;18385;51.572;6.578;2022-11-04T04:59:22;11.70;70.90
31677;DHT22;18385;51.572;6.578;2022-11-04T05:01:48;11.70;70.90
31677;DHT22;18385;51.572;6.578;2022-11-04T05:04:13;11.60;71.00
31677;DHT22;18385;51.572;6.578;2022-11-04T05:06:39;11.70;71.00
31677;DHT22;18385;51.572;6.578;2022-11-04T05:09:05;11.60;71.00
31677;DHT22;18385;51.572;6.578;2022-11-04T05:11:30;11.60;71.00
31677;DHT22;18385;51.572;6.578;2022-11-04T05:13:56;11.60;71.00
31677;DHT22;18385;51.572;6.578;2022-11-04T05:16:22;11.60;71.00
31677;DHT22;18385;51.572;6.578;2022-11-04T05:18:49;11.60;71.10
31677;DHT22;18385;51.572;6.578;2022-11-04T05:21:15;11.60;71.00
31677;DHT22;18385;51.572;6.578;2022-11-04T05:23:41;11.60;71.10
31677;DHT22;18385;51.572;6.578;2022-11-04T05:26:06;11.60;71.10
31677;DHT22;18385;51.572;6.578;2022-11-04T05:28:32;11.60;71.20
31677;DHT22;18385;51.572;6.578;2022-11-04T05:31:02;11.60;71.90
31677;DHT22;18385;51.572;6.578;2022-11-04T05:33:28;11.60;71.10
31677;DHT22;18385;51.572;6.578;2022-11-04T05:35:54;11.60;71.20
31677;DHT22;18385;51.572;6.578;2022-11-04T05:38:20;11.60;71.20
31677;DHT22;18385;51.572;6.578;2022-11-04T05:40:45;11.60;71.20
31677;DHT22;18385;51.572;6.578;2022-11-04T05:43:11;11.60;71.20
31677;DHT22;18385;51.572;6.578;2022-11-04T05:45:36;11.60;71.90
31677;DHT22;18385;51.572;6.578;2022-11-04T05:48:04;11.70;71.20
31677;DHT22;18385;51.572;6.578;2022-11-04T05:50:31;11.60;71.20
31677;DHT22;18385;51.572;6.578;2022-11-04T05:52:57;11.60;71.20
31677;DHT22;18385;51.572;6.578;2022-11-04T05:55:24;11.60;71.20
31677;DHT22;18385;51.572;6.578;2022-11-04T05:57:49;11.60;71.20
31677;DHT22;18385;51.572;6.578;2022-11-04T06:00:15;11.60;71.30
31677;DHT22;18385;51.572;6.578;2022-11-04T06:02:41;11.60;71.30
31677;DHT22;18385;51.572;6.578;2022-11-04T06:05:08;11.60;71.30
31677;DHT22;18385;51.572;6.578;2022-11-04T06:07:33;11.70;71.30
31677;DHT22;18385;51.572;6.578;2022-11-04T06:09:59;11.70;71.30
31677;DHT22;18385;51.572;6.578;2022-11-04T06:12:25;11.70;71.30
31677;DHT22;18385;51.572;6.578;2022-11-04T06:14:51;11.80;71.30
31677;DHT22;18385;51.572;6.578;2022-11-04T06:17:19;11.80;71.90
31677;DHT22;18385;51.572;6.578;2022-11-04T06:19:45;11.90;71.20
31677;DHT22;18385;51.572;6.578;2022-11-04T06:22:12;12.00;71.10
31677;DHT22;18385;51.572;6.578;2022-11-04T06:24:38;12.10;71.00
31677;DHT22;18385;51.572;6.578;2022-11-04T06:27:04;12.20;71.00
31677;DHT22;18385;51.572;6.578;2022-11-04T06:29:30;12.30;70.90
31677;DHT22;18385;51.572;6.578;2022-11-04T06:31:55;12.40;70.70
31677;DHT22;18385;51.572;6.578;2022-11-04T06:34:21;12.50;70.60
31677;DHT22;18385;51.572;6.578;2022-11-04T06:36:48;12.60;71.30
31677;DHT22;18385;51.572;6.578;2022-11-04T06:39:13;12.60;70.40
31677;DHT22;18385;51.572;6.578;2022-11-04T06:41:39;12.70;70.50
31677;DHT22;18385;51.572;6.578;2022-11-04T06:44:05;12.80;70.30
31677;DHT22;18385;51.572;6.578;2022-11-04T06:48:56;12.80;70.10
31677;DHT22;18385;51.572;6.578;2022-11-04T06:51:23;12.80;70.00
31677;DHT22;18385;51.572;6.578;2022-11-04T06:53:49;12.80;70.00
31677;DHT22;18385;51.572;6.578;2022-11-04T06:56:15;12.80;70.10
31677;DHT22;18385;51.572;6.578;2022-11-04T06:58:40;12.80;70.00
31677;DHT22;18385;51.572;6.578;2022-11-04T07:01:06;12.80;70.00
31677;DHT22;18385;51.572;6.578;2022-11-04T07:03:32;12.90;70.00
31677;DHT22;18385;51.572;6.578;2022-11-04T07:05:57;12.90;70.00
31677;DHT22;18385;51.572;6.578;2022-11-04T07:08:23;12.90;69.90
31677;DHT22;18385;51.572;6.578;2022-11-04T07:10:49;12.80;69.80
31677;DHT22;18385;51.572;6.578;2022-11-04T07:13:14;12.80;69.80
31677;DHT22;18385;51.572;6.578;2022-11-04T07:15:41;12.70;69.80
31677;DHT22;18385;51.572;6.578;2022-11-04T07:18:07;12.60;69.80
31677;DHT22;18385;51.572;6.578;2022-11-04T07:20:34;12.50;69.80
31677;DHT22;18385;51.572;6.578;2022-11-04T07:23:00;12.50;70.00
31677;DHT22;18385;51.572;6.578;2022-11-04T07:25:26;12.40;70.10
31677;DHT22;18385;51.572;6.578;2022-11-04T07:27:52;12.30;70.20
31677;DHT22;18385;51.572;6.578;2022-11-04T07:30:17;12.30;70.30
31677;DHT22;18385;51.572;6.578;2022-11-04T07:32:45;12.20;70.40
31677;DHT22;18385;51.572;6.578;2022-11-04T07:35:11;12.30;70.50
31677;DHT22;18385;51.572;6.578;2022-11-04T07:37:37;12.30;70.50
31677;DHT22;18385;51.572;6.578;2022-11-04T07:40:04;12.30;70.60
31677;DHT22;18385;51.572;6.578;2022-11-04T07:42:30;12.30;70.60
31677;DHT22;18385;51.572;6.578;2022-11-04T07:45:03;12.40;70.70
31677;DHT22;18385;51.572;6.578;2022-11-04T07:47:30;12.60;70.80
31677;DHT22;18385;51.572;6.578;2022-11-04T07:49:55;12.80;70.60
31677;DHT22;18385;51.572;6.578;2022-11-04T07:52:21;13.00;70.40
31677;DHT22;18385;51.572;6.578;2022-11-04T07:54:48;13.10;70.10
31677;DHT22;18385;51.572;6.578;2022-11-04T07:57:13;13.20;69.90
31677;DHT22;18385;51.572;6.578;2022-11-04T07:59:39;13.30;69.80
31677;DHT22;18385;51.572;6.578;2022-11-04T08:02:05;13.40;69.70
31677;DHT22;18385;51.572;6.578;2022-11-04T08:04:31;13.50;69.70
31677;DHT22;18385;51.572;6.578;2022-11-04T08:06:56;13.60;69.60
31677;DHT22;18385;51.572;6.578;2022-11-04T08:09:22;13.70;69.40
31677;DHT22;18385;51.572;6.578;2022-11-04T08:11:48;13.70;69.30
31677;DHT22;18385;51.572;6.578;2022-11-04T08:14:13;13.80;69.30
31677;DHT22;18385;51.572;6.578;2022-11-04T08:16:39;13.80;69.20
31677;DHT22;18385;51.572;6.578;2022-11-04T08:19:05;13.90;69.30
31677;DHT22;18385;51.572;6.578;2022-11-04T08:21:32;14.00;69.10
31677;DHT22;18385;51.572;6.578;2022-11-04T08:23:58;14.00;69.10
31677;DHT22;18385;51.572;6.578;2022-11-04T08:26:24;14.10;69.00
31677;DHT22;18385;51.572;6.578;2022-11-04T08:28:50;14.20;68.90
31677;DHT22;18385;51.572;6.578;2022-11-04T08:33:42;14.40;68.70
31677;DHT22;18385;51.572;6.578;2022-11-04T08:36:12;14.50;68.60
31677;DHT22;18385;51.572;6.578;2022-11-04T08:38:38;14.60;68.40
31677;DHT22;18385;51.572;6.578;2022-11-04T08:41:06;14.70;68.30
31677;DHT22;18385;51.572;6.578;2022-11-04T08:43:32;14.80;68.10
31677;DHT22;18385;51.572;6.578;2022-11-04T08:45:59;14.80;68.00
31677;DHT22;18385;51.572;6.578;2022-11-04T08:48:25;14.90;68.00
31677;DHT22;18385;51.572;6.578;2022-11-04T08:50:52;15.00;68.70
31677;DHT22;18385;51.572;6.578;2022-11-04T08:53:19;15.10;67.70
31677;DHT22;18385;51.572;6.578;2022-11-04T08:55:45;15.20;67.60
31677;DHT22;18385;51.572;6.578;2022-11-04T08:58:11;15.20;67.50
31677;DHT22;18385;51.572;6.578;2022-11-04T09:00:36;15.30;67.50
31677;DHT22;18385;51.572;6.578;2022-11-04T09:03:03;15.40;67.40
31677;DHT22;18385;51.572;6.578;2022-11-04T09:05:29;15.40;67.20
31677;DHT22;18385;51.572;6.578;2022-11-04T09:07:55;15.50;67.30
31677;DHT22;18385;51.572;6.578;2022-11-04T09:10:21;15.60;67.00
31677;DHT22;18385;51.572;6.578;2022-11-04T09:12:47;15.70;66.90
31677;DHT22;18385;51.572;6.578;2022-11-04T09:15:12;15.70;66.80
31677;DHT22;18385;51.572;6.578;2022-11-04T09:17:38;15.60;66.70
31677;DHT22;18385;51.572;6.578;2022-11-04T09:20:05;15.70;66.80
31677;DHT22;18385;51.572;6.578;2022-11-04T09:22:31;15.70;66.70
31677;DHT22;18385;51.572;6.578;2022-11-04T09:24:57;15.80;66.70
31677;DHT22;18385;51.572;6.578;2022-11-04T09:27:22;15.90;66.70
31677;DHT22;18385;51.572;6.578;2022-11-04T09:29:48;16.00;66.50
31677;DHT22;18385;51.572;6.578;2022-11-04T09:32:14;16.20;66.30
31677;DHT22;18385;51.572;6.578;2022-11-04T09:34:39;16.20;66.00
31677;DHT22;18385;51.572;6.578;2022-11-04T09:37:05;16.10;65.80
31677;DHT22;18385;51.572;6.578;2022-11-04T09:39:31;16.10;65.70
31677;DHT22;18385;51.572;6.578;2022-11-04T09:42:37;16.00;65.80
31677;DHT22;18385;51.572;6.578;2022-11-04T09:45:15;15.80;65.60
31677;DHT22;18385;51.572;6.578;2022-11-04T09:47:44;15.60;65.80
31677;DHT22;18385;51.572;6.578;2022-11-04T09:50:18;15.50;66.10
31677;DHT22;18385;51.572;6.578;2022-11-04T09:52:50;15.50;66.60
31677;DHT22;18385;51.572;6.578;2022-11-04T09:55:31;15.40;66.40
31677;DHT22;18385;51.572;6.578;2022-11-04T09:57:59;15.30;66.40
31677;DHT22;18385;51.572;6.578;2022-11-04T10:00:25;15.30;66.50
31677;DHT22;18385;51.572;6.578;2022-11-04T10:05:56;15.30;66.40
31677;DHT22;18385;51.572;6.578;2022-11-04T10:14:44;15.30;66.50
31677;DHT22;18385;51.572;6.578;2022-11-04T10:20:26;15.40;66.50
31677;DHT22;18385;51.572;6.578;2022-11-04T10:25:27;15.50;66.40
31677;DHT22;18385;51.572;6.578;2022-11-04T10:27:55;15.70;66.40
31677;DHT22;18385;51.572;6.578;2022-11-04T10:30:24;15.90;66.10
31677;DHT22;18385;51.572;6.578;2022-11-04T10:33:03;16.00;65.80
31677;DHT22;18385;51.572;6.578;2022-11-04T10:35:38;16.10;65.50
31677;DHT22;18385;51.572;6.578;2022-11-04T10:38:35;16.10;65.50
31677;DHT22;18385;51.572;6.578;2022-11-04T10:44:00;16.30;65.30
31677;DHT22;18385;51.572;6.578;2022-11-04T10:46:54;16.40;65.10
31677;DHT22;18385;51.572;6.578;2022-11-04T10:52:09;16.60;65.10
31677;DHT22;18385;51.572;6.578;2022-11-04T10:54:45;16.60;65.00
31677;DHT22;18385;51.572;6.578;2022-11-04T10:57:15;16.70;64.70
31677;DHT22;18385;51.572;6.578;2022-11-04T11:02:15;16.80;64.70
31677;DHT22;18385;51.572;6.578;2022-11-04T11:04:42;16.90;64.80
31677;DHT22;18385;51.572;6.578;2022-11-04T11:07:14;16.90;64.50
31677;DHT22;18385;51.572;6.578;2022-11-04T11:09:52;16.90;64.40
31677;DHT22;18385;51.572;6.578;2022-11-04T11:12:21;16.80;64.20
31677;DHT22;18385;51.572;6.578;2022-11-04T11:14:55;16.80;64.20
31677;DHT22;18385;51.572;6.578;2022-11-04T11:22:40;17.10;64.00
31677;DHT22;18385;51.572;6.578;2022-11-04T11:25:27;17.20;63.90
31677;DHT22;18385;51.572;6.578;2022-11-04T11:28:09;17.30;63.70
31677;DHT22;18385;51.572;6.578;2022-11-04T11:33:23;17.40;63.30
31677;DHT22;18385;51.572;6.578;2022-11-04T11:36:16;17.40;63.20
31677;DHT22;18385;51.572;6.578;2022-11-04T11:38:58;17.40;62.90
31677;DHT22;18385;51.572;6.578;2022-11-04T11:41:27;17.30;63.00
31677;DHT22;18385;51.572;6.578;2022-11-04T11:44:02;17.40;63.10
31677;DHT22;18385;51.572;6.578;2022-11-04T11:46:34;17.40;62.80
31677;DHT22;18385;51.572;6.578;2022-11-04T11:49:04;17.50;62.60
31677;DHT22;18385;51.572;6.578;2022-11-04T11:51:36;17.40;62.50
31677;DHT22;18385;51.572;6.578;2022-11-04T11:54:15;17.40;62.50
31677;DHT22;18385;51.572;6.578;2022-11-04T11:56:58;17.40;62.60
31677;DHT22;18385;51.572;6.578;2022-11-04T12:01:58;17.40;62.50
31677;DHT22;18385;51.572;6.578;2022-11-04T12:04:25;17.40;62.30
31677;DHT22;18385;51.572;6.578;2022-11-04T12:10:01;17.20;62.10
31677;DHT22;18385;51.572;6.578;2022-11-04T12:12:43;17.10;62.20
31677;DHT22;18385;51.572;6.578;2022-11-04T12:15:45;16.90;62.40
31677;DHT22;18385;51.572;6.578;2022-11-04T12:21:16;16.70;62.40
31677;DHT22;18385;51.572;6.578;2022-11-04T12:29:29;16.10;62.90
31677;DHT22;18385;51.572;6.578;2022-11-04T12:32:09;16.00;63.20
31677;DHT22;18385;51.572;6.578;2022-11-04T12:40:24;16.20;63.30
31677;DHT22;18385;51.572;6.578;2022-11-04T12:45:29;16.40;63.00
31677;DHT22;18385;51.572;6.578;2022-11-04T12:48:06;16.50;62.80
31677;DHT22;18385;51.572;6.578;2022-11-04T12:50:51;16.60;62.60
31677;DHT22;18385;51.572;6.578;2022-11-04T12:56:13;16.50;62.40
31677;DHT22;18385;51.572;6.578;2022-11-04T13:04:16;16.50;62.60
31677;DHT22;18385;51.572;6.578;2022-11-04T13:06:46;16.50;62.60
31677;DHT22;18385;51.572;6.578;2022-11-04T13:09:36;16.60;62.40
31677;DHT22;18385;51.572;6.578;2022-11-04T13:12:11;16.80;62.40
31677;DHT22;18385;51.572;6.578;2022-11-04T13:14:58;17.00;62.40
31677;DHT22;18385;51.572;6.578;2022-11-04T13:17:35;17.20;62.30
31677;DHT22;18385;51.572;6.578;2022-11-04T13:23:01;17.10;61.70
31677;DHT22;18385;51.572;6.578;2022-11-04T13:25:44;17.10;61.90
31677;DHT22;18385;51.572;6.578;2022-11-04T13:28:12;17.10;61.70
31677;DHT22;18385;51.572;6.578;2022-11-04T13:31:05;17.00;61.80
31677;DHT22;18385;51.572;6.578;2022-11-04T13:33:41;17.00;61.60
31677;DHT22;18385;51.572;6.578;2022-11-04T13:38:46;16.90;61.80
31677;DHT22;18385;51.572;6.578;2022-11-04T13:43:58;17.00;62.00
31677;DHT22;18385;51.572;6.578;2022-11-04T13:46:30;17.30;62.60
31677;DHT22;18385;51.572;6.578;2022-11-04T13:51:46;17.70;60.80
31677;DHT22;18385;51.572;6.578;2022-11-04T13:54:31;17.40;60.60
31677;DHT22;18385;51.572;6.578;2022-11-04T13:57:11;17.90;62.80
31677;DHT22;18385;51.572;6.578;2022-11-04T13:59:39;18.90;62.60
31677;DHT22;18385;51.572;6.578;2022-11-04T14:02:44;19.40;61.20
31677;DHT22;18385;51.572;6.578;2022-11-04T14:08:15;19.70;59.00
31677;DHT22;18385;51.572;6.578;2022-11-04T14:23:31;18.30;58.90
31677;DHT22;18385;51.572;6.578;2022-11-04T14:26:18;18.10;59.00
31677;DHT22;18385;51.572;6.578;2022-11-04T14:29:24;17.90;59.20
31677;DHT22;18385;51.572;6.578;2022-11-04T14:31:55;17.60;59.30
31677;DHT22;18385;51.572;6.578;2022-11-04T14:34:25;17.50;59.60
31677;DHT22;18385;51.572;6.578;2022-11-04T14:37:00;17.40;59.60
31677;DHT22;18385;51.572;6.578;2022-11-04T14:39:35;17.40;59.60
31677;DHT22;18385;51.572;6.578;2022-11-04T14:42:04;17.30;59.50
31677;DHT22;18385;51.572;6.578;2022-11-04T14:44:36;17.20;59.60
31677;DHT22;18385;51.572;6.578;2022-11-04T14:47:33;17.20;59.70
31677;DHT22;18385;51.572;6.578;2022-11-04T14:50:00;17.10;59.60
31677;DHT22;18385;51.572;6.578;2022-11-04T14:57:47;16.90;59.90
31677;DHT22;18385;51.572;6.578;2022-11-04T15:03:14;16.60;59.90
31677;DHT22;18385;51.572;6.578;2022-11-04T15:05:47;16.40;60.10
31677;DHT22;18385;51.572;6.578;2022-11-04T15:08:42;16.30;60.40
31677;DHT22;18385;51.572;6.578;2022-11-04T15:11:17;16.20;60.60
31677;DHT22;18385;51.572;6.578;2022-11-04T15:14:14;16.10;60.60
31677;DHT22;18385;51.572;6.578;2022-11-04T15:16:41;16.10;60.80
31677;DHT22;18385;51.572;6.578;2022-11-04T15:19:10;16.00;60.80
31677;DHT22;18385;51.572;6.578;2022-11-04T15:21:39;16.00;60.90
31677;DHT22;18385;51.572;6.578;2022-11-04T15:24:12;15.90;60.90
31677;DHT22;18385;51.572;6.578;2022-11-04T15:26:39;15.90;61.00
31677;DHT22;18385;51.572;6.578;2022-11-04T15:29:10;15.90;61.10
31677;DHT22;18385;51.572;6.578;2022-11-04T15:31:38;15.90;61.20
31677;DHT22;18385;51.572;6.578;2022-11-04T15:34:15;15.90;61.20
31677;DHT22;18385;51.572;6.578;2022-11-04T15:36:41;15.90;61.30
31677;DHT22;18385;51.572;6.578;2022-11-04T15:39:21;15.90;61.20
31677;DHT22;18385;51.572;6.578;2022-11-04T15:41:51;15.90;61.10
31677;DHT22;18385;51.572;6.578;2022-11-04T15:44:37;15.90;61.20
31677;DHT22;18385;51.572;6.578;2022-11-04T15:49:51;15.80;61.50
31677;DHT22;18385;51.572;6.578;2022-11-04T15:52:23;15.80;61.50
31677;DHT22;18385;51.572;6.578;2022-11-04T15:54:54;15.70;61.50
31677;DHT22;18385;51.572;6.578;2022-11-04T15:57:33;15.60;61.60
31677;DHT22;18385;51.572;6.578;2022-11-04T16:00:19;15.60;61.80
31677;DHT22;18385;51.572;6.578;2022-11-04T16:02:55;15.40;61.80
31677;DHT22;18385;51.572;6.578;2022-11-04T16:05:30;15.30;62.00
31677;DHT22;18385;51.572;6.578;2022-11-04T16:08:21;15.20;62.20
31677;DHT22;18385;51.572;6.578;2022-11-04T16:10:48;15.10;62.40
31677;DHT22;18385;51.572;6.578;2022-11-04T16:18:41;15.00;62.80
31677;DHT22;18385;51.572;6.578;2022-11-04T16:23:59;15.00;62.90
31677;DHT22;18385;51.572;6.578;2022-11-04T16:26:26;14.90;62.90
31677;DHT22;18385;51.572;6.578;2022-11-04T16:28:54;14.80;62.70
31677;DHT22;18385;51.572;6.578;2022-11-04T16:33:47;14.70;63.10
31677;DHT22;18385;51.572;6.578;2022-11-04T16:36:14;14.70;63.20
31677;DHT22;18385;51.572;6.578;2022-11-04T16:39:06;14.70;63.30
31677;DHT22;18385;51.572;6.578;2022-11-04T16:41:35;14.70;63.40
31677;DHT22;18385;51.572;6.578;2022-11-04T16:44:03;14.70;63.40
31677;DHT22;18385;51.572;6.578;2022-11-04T16:46:29;14.70;63.40
31677;DHT22;18385;51.572;6.578;2022-11-04T16:48:56;14.70;63.30
31677;DHT22;18385;51.572;6.578;2022-11-04T16:51:23;14.70;63.40
31677;DHT22;18385;51.572;6.578;2022-11-04T16:53:51;14.80;63.40
31677;DHT22;18385;51.572;6.578;2022-11-04T16:56:19;14.80;63.40
31677;DHT22;18385;51.572;6.578;2022-11-04T16:58:46;14.80;63.50
31677;DHT22;18385;51.572;6.578;2022-11-04T17:01:13;14.80;63.40
31677;DHT22;18385;51.572;6.578;2022-11-04T17:03:40;14.80;63.40
31677;DHT22;18385;51.572;6.578;2022-11-04T17:06:09;14.90;63.50
31677;DHT22;18385;51.572;6.578;2022-11-04T17:08:35;14.90;63.50
31677;DHT22;18385;51.572;6.578;2022-11-04T17:11:00;14.90;63.50
31677;DHT22;18385;51.572;6.578;2022-11-04T17:13:27;14.80;63.40
31677;DHT22;18385;51.572;6.578;2022-11-04T17:15:52;14.80;63.50
31677;DHT22;18385;51.572;6.578;2022-11-04T17:18:19;14.80;63.50
31677;DHT22;18385;51.572;6.578;2022-11-04T17:20:52;14.80;63.60
31677;DHT22;18385;51.572;6.578;2022-11-04T17:23:18;14.80;63.80
31677;DHT22;18385;51.572;6.578;2022-11-04T17:25:44;14.70;63.70
31677;DHT22;18385;51.572;6.578;2022-11-04T17:28:10;14.70;63.80
31677;DHT22;18385;51.572;6.578;2022-11-04T17:30:36;14.70;63.90
31677;DHT22;18385;51.572;6.578;2022-11-04T17:33:02;14.60;64.00
31677;DHT22;18385;51.572;6.578;2022-11-04T17:35:37;14.60;64.10
31677;DHT22;18385;51.572;6.578;2022-11-04T17:38:03;14.60;63.90
31677;DHT22;18385;51.572;6.578;2022-11-04T17:40:29;14.60;64.10
31677;DHT22;18385;51.572;6.578;2022-11-04T17:42:55;14.60;64.10
31677;DHT22;18385;51.572;6.578;2022-11-04T17:45:40;14.60;64.10
31677;DHT22;18385;51.572;6.578;2022-11-04T17:48:07;14.60;64.20
31677;DHT22;18385;51.572;6.578;2022-11-04T17:50:36;14.60;64.20
31677;DHT22;18385;51.572;6.578;2022-11-04T17:53:02;14.70;64.20
31677;DHT22;18385;51.572;6.578;2022-11-04T17:55:28;14.70;64.30
31677;DHT22;18385;51.572;6.578;2022-11-04T17:57:54;14.70;64.30
31677;DHT22;18385;51.572;6.578;2022-11-04T18:00:20;14.70;64.20
31677;DHT22;18385;51.572;6.578;2022-11-04T18:02:48;14.70;64.20
31677;DHT22;18385;51.572;6.578;2022-11-04T18:05:14;14.70;64.30
31677;DHT22;18385;51.572;6.578;2022-11-04T18:07:40;14.60;64.30
31677;DHT22;18385;51.572;6.578;2022-11-04T18:10:07;14.60;64.30
31677;DHT22;18385;51.572;6.578;2022-11-04T18:12:32;14.60;64.50
31677;DHT22;18385;51.572;6.578;2022-11-04T18:15:02;14.60;64.50
31677;DHT22;18385;51.572;6.578;2022-11-04T18:17:28;14.60;64.60
31677;DHT22;18385;51.572;6.578;2022-11-04T18:19:54;14.60;64.70
31677;DHT22;18385;51.572;6.578;2022-11-04T18:22:19;14.60;64.70
31677;DHT22;18385;51.572;6.578;2022-11-04T18:24:45;14.60;64.70
31677;DHT22;18385;51.572;6.578;2022-11-04T18:27:13;14.60;64.60
31677;DHT22;18385;51.572;6.578;2022-11-04T18:29:39;14.60;64.70